sensor_id;sensor_type;location;lat;lon;timestamp;P1;durP1;ratioP1;P2;durP2;ratioP2
11046;SDS011;5576;50.008;10.596;2023-04-01T00:00:54;3.10;;;1.25;;
11046;SDS011;5576;50.008;10.596;2023-04-01T00:03:21;2.47;;;1.20;;
11046;SDS011;5576;50.008;10.596;2023-04-01T00:05:48;4.13;;;1.23;;
11046;SDS011;5576;50.008;10.596;2023-04-01T00:08:14;4.22;;;1.38;;
11046;SDS011;5576;50.008;10.596;2023-04-01T00:10:40;3.00;;;1.30;;
11046;SDS011;5576;50.008;10.596;2023-04-01T00:13:06;3.03;;;1.17;;
11046;SDS011;5576;50.008;10.596;2023-04-01T00:15:32;3.35;;;1.30;;
11046;SDS011;5576;50.008;10.596;2023-04-01T00:17:58;2.70;;;1.20;;
11046;SDS011;5576;50.008;10.596;2023-04-01T00:20:25;2.75;;;1.15;;
11046;SDS011;5576;50.008;10.596;2023-04-01T00:22:51;3.20;;;1.30;;
11046;SDS011;5576;50.008;10.596;2023-04-01T00:25:16;3.90;;;1.40;;
11046;SDS011;5576;50.008;10.596;2023-04-01T00:27:43;4.63;;;1.50;;
11046;SDS011;5576;50.008;10.596;2023-04-01T00:30:09;3.90;;;1.30;;
11046;SDS011;5576;50.008;10.596;2023-04-01T00:32:35;3.42;;;1.38;;
11046;SDS011;5576;50.008;10.596;2023-04-01T00:35:02;4.00;;;1.30;;
11046;SDS011;5576;50.008;10.596;2023-04-01T00:37:28;3.10;;;1.58;;
11046;SDS011;5576;50.008;10.596;2023-04-01T00:39:54;3.47;;;1.17;;
11046;SDS011;5576;50.008;10.596;2023-04-01T00:42:20;3.47;;;1.20;;
11046;SDS011;5576;50.008;10.596;2023-04-01T00:44:48;2.65;;;1.20;;
11046;SDS011;5576;50.008;10.596;2023-04-01T00:47:16;2.25;;;1.20;;
11046;SDS011;5576;50.008;10.596;2023-04-01T00:49:44;3.72;;;1.27;;
11046;SDS011;5576;50.008;10.596;2023-04-01T00:52:13;2.35;;;1.02;;
11046;SDS011;5576;50.008;10.596;2023-04-01T00:54:41;3.08;;;1.10;;
11046;SDS011;5576;50.008;10.596;2023-04-01T00:57:10;3.63;;;1.40;;
11046;SDS011;5576;50.008;10.596;2023-04-01T00:59:41;2.83;;;1.40;;
11046;SDS011;5576;50.008;10.596;2023-04-01T01:02:10;3.00;;;1.40;;
11046;SDS011;5576;50.008;10.596;2023-04-01T01:04:37;3.50;;;1.10;;
11046;SDS011;5576;50.008;10.596;2023-04-01T01:29:32;4.00;;;1.20;;
11046;SDS011;5576;50.008;10.596;2023-04-01T01:37:58;2.85;;;1.00;;
11046;SDS011;5576;50.008;10.596;2023-04-01T01:40:27;2.70;;;1.10;;
11046;SDS011;5576;50.008;10.596;2023-04-01T01:42:57;2.47;;;1.00;;
11046;SDS011;5576;50.008;10.596;2023-04-01T01:45:27;2.60;;;1.10;;
11046;SDS011;5576;50.008;10.596;2023-04-01T01:47:55;2.72;;;1.13;;
11046;SDS011;5576;50.008;10.596;2023-04-01T01:50:23;2.95;;;1.10;;
11046;SDS011;5576;50.008;10.596;2023-04-01T01:52:59;3.65;;;1.25;;
11046;SDS011;5576;50.008;10.596;2023-04-01T01:55:30;2.42;;;1.10;;
11046;SDS011;5576;50.008;10.596;2023-04-01T01:57:58;2.53;;;1.08;;
11046;SDS011;5576;50.008;10.596;2023-04-01T02:00:38;2.40;;;0.98;;
11046;SDS011;5576;50.008;10.596;2023-04-01T02:03:05;2.58;;;0.95;;
11046;SDS011;5576;50.008;10.596;2023-04-01T02:05:32;2.42;;;1.20;;
11046;SDS011;5576;50.008;10.596;2023-04-01T02:08:08;2.20;;;1.00;;
11046;SDS011;5576;50.008;10.596;2023-04-01T02:10:39;2.15;;;0.93;;
11046;SDS011;5576;50.008;10.596;2023-04-01T02:13:16;3.67;;;1.13;;
11046;SDS011;5576;50.008;10.596;2023-04-01T02:15:50;2.47;;;0.93;;
11046;SDS011;5576;50.008;10.596;2023-04-01T02:18:20;2.92;;;1.00;;
11046;SDS011;5576;50.008;10.596;2023-04-01T02:20:47;1.90;;;1.10;;
11046;SDS011;5576;50.008;10.596;2023-04-01T02:23:14;4.13;;;1.30;;
11046;SDS011;5576;50.008;10.596;2023-04-01T02:25:40;2.40;;;0.90;;
11046;SDS011;5576;50.008;10.596;2023-04-01T02:28:08;2.78;;;1.10;;
11046;SDS011;5576;50.008;10.596;2023-04-01T02:30:36;2.95;;;1.00;;
11046;SDS011;5576;50.008;10.596;2023-04-01T02:33:06;3.57;;;1.10;;
11046;SDS011;5576;50.008;10.596;2023-04-01T02:35:34;2.63;;;1.17;;
11046;SDS011;5576;50.008;10.596;2023-04-01T02:38:02;3.40;;;1.20;;
11046;SDS011;5576;50.008;10.596;2023-04-01T02:40:28;3.78;;;1.20;;
11046;SDS011;5576;50.008;10.596;2023-04-01T02:42:54;4.10;;;1.25;;
11046;SDS011;5576;50.008;10.596;2023-04-01T02:45:20;3.33;;;1.07;;
11046;SDS011;5576;50.008;10.596;2023-04-01T02:47:46;2.25;;;0.90;;
11046;SDS011;5576;50.008;10.596;2023-04-01T02:50:11;2.60;;;1.15;;
11046;SDS011;5576;50.008;10.596;2023-04-01T02:52:37;2.17;;;1.00;;
11046;SDS011;5576;50.008;10.596;2023-04-01T02:55:03;2.85;;;1.05;;
11046;SDS011;5576;50.008;10.596;2023-04-01T02:57:30;2.90;;;1.10;;
11046;SDS011;5576;50.008;10.596;2023-04-01T02:59:56;2.33;;;1.00;;
11046;SDS011;5576;50.008;10.596;2023-04-01T03:02:22;2.90;;;1.10;;
11046;SDS011;5576;50.008;10.596;2023-04-01T03:04:47;3.03;;;1.10;;
11046;SDS011;5576;50.008;10.596;2023-04-01T03:07:13;2.95;;;1.17;;
11046;SDS011;5576;50.008;10.596;2023-04-01T03:09:39;3.00;;;1.05;;
11046;SDS011;5576;50.008;10.596;2023-04-01T03:12:05;2.58;;;0.93;;
11046;SDS011;5576;50.008;10.596;2023-04-01T03:14:43;2.55;;;1.10;;
11046;SDS011;5576;50.008;10.596;2023-04-01T03:17:08;3.83;;;1.40;;
11046;SDS011;5576;50.008;10.596;2023-04-01T03:19:34;3.78;;;1.33;;
11046;SDS011;5576;50.008;10.596;2023-04-01T03:22:05;3.53;;;1.30;;
11046;SDS011;5576;50.008;10.596;2023-04-01T03:24:31;2.55;;;1.30;;
11046;SDS011;5576;50.008;10.596;2023-04-01T03:26:56;3.07;;;1.03;;
11046;SDS011;5576;50.008;10.596;2023-04-01T03:29:23;2.77;;;1.13;;
11046;SDS011;5576;50.008;10.596;2023-04-01T03:31:48;2.67;;;1.15;;
11046;SDS011;5576;50.008;10.596;2023-04-01T03:34:14;3.33;;;1.10;;
11046;SDS011;5576;50.008;10.596;2023-04-01T03:36:40;2.25;;;1.05;;
11046;SDS011;5576;50.008;10.596;2023-04-01T03:39:06;2.72;;;1.05;;
11046;SDS011;5576;50.008;10.596;2023-04-01T03:41:39;2.83;;;1.00;;
11046;SDS011;5576;50.008;10.596;2023-04-01T03:44:05;2.77;;;1.13;;
11046;SDS011;5576;50.008;10.596;2023-04-01T03:46:31;2.25;;;1.10;;
11046;SDS011;5576;50.008;10.596;2023-04-01T03:48:57;3.45;;;1.20;;
11046;SDS011;5576;50.008;10.596;2023-04-01T03:51:23;2.43;;;1.00;;
11046;SDS011;5576;50.008;10.596;2023-04-01T03:53:49;2.65;;;1.10;;
11046;SDS011;5576;50.008;10.596;2023-04-01T03:56:15;3.10;;;1.27;;
11046;SDS011;5576;50.008;10.596;2023-04-01T03:58:41;2.78;;;1.20;;
11046;SDS011;5576;50.008;10.596;2023-04-01T04:03:44;2.50;;;1.20;;
11046;SDS011;5576;50.008;10.596;2023-04-01T04:06:12;2.90;;;1.05;;
11046;SDS011;5576;50.008;10.596;2023-04-01T04:08:38;2.80;;;1.10;;
11046;SDS011;5576;50.008;10.596;2023-04-01T04:11:04;3.00;;;1.17;;
11046;SDS011;5576;50.008;10.596;2023-04-01T04:13:30;2.70;;;1.17;;
11046;SDS011;5576;50.008;10.596;2023-04-01T04:16:00;2.35;;;1.10;;
11046;SDS011;5576;50.008;10.596;2023-04-01T04:18:26;2.83;;;1.05;;
11046;SDS011;5576;50.008;10.596;2023-04-01T04:20:52;4.40;;;1.30;;
11046;SDS011;5576;50.008;10.596;2023-04-01T04:23:18;2.58;;;1.10;;
11046;SDS011;5576;50.008;10.596;2023-04-01T04:26:01;2.78;;;1.20;;
11046;SDS011;5576;50.008;10.596;2023-04-01T04:28:30;3.22;;;1.17;;
11046;SDS011;5576;50.008;10.596;2023-04-01T04:30:57;4.18;;;1.30;;
11046;SDS011;5576;50.008;10.596;2023-04-01T04:33:24;3.42;;;1.00;;
11046;SDS011;5576;50.008;10.596;2023-04-01T04:35:51;2.50;;;1.13;;
11046;SDS011;5576;50.008;10.596;2023-04-01T04:38:20;2.38;;;1.08;;
11046;SDS011;5576;50.008;10.596;2023-04-01T04:40:46;2.85;;;1.10;;
11046;SDS011;5576;50.008;10.596;2023-04-01T04:43:13;3.35;;;1.13;;
11046;SDS011;5576;50.008;10.596;2023-04-01T04:45:41;3.03;;;1.10;;
11046;SDS011;5576;50.008;10.596;2023-04-01T04:48:09;2.60;;;1.10;;
11046;SDS011;5576;50.008;10.596;2023-04-01T04:50:40;4.60;;;1.30;;
11046;SDS011;5576;50.008;10.596;2023-04-01T04:53:06;2.92;;;0.98;;
11046;SDS011;5576;50.008;10.596;2023-04-01T04:55:32;3.28;;;1.23;;
11046;SDS011;5576;50.008;10.596;2023-04-01T04:58:16;3.05;;;1.13;;
11046;SDS011;5576;50.008;10.596;2023-04-01T05:00:43;2.95;;;1.10;;
11046;SDS011;5576;50.008;10.596;2023-04-01T05:03:17;4.10;;;1.10;;
11046;SDS011;5576;50.008;10.596;2023-04-01T05:05:51;2.65;;;1.17;;
11046;SDS011;5576;50.008;10.596;2023-04-01T05:08:18;3.17;;;1.10;;
11046;SDS011;5576;50.008;10.596;2023-04-01T05:10:43;3.73;;;1.10;;
11046;SDS011;5576;50.008;10.596;2023-04-01T05:13:10;2.28;;;0.90;;
11046;SDS011;5576;50.008;10.596;2023-04-01T05:15:37;2.38;;;0.88;;
11046;SDS011;5576;50.008;10.596;2023-04-01T05:18:04;2.38;;;1.00;;
11046;SDS011;5576;50.008;10.596;2023-04-01T05:20:29;2.97;;;1.00;;
11046;SDS011;5576;50.008;10.596;2023-04-01T05:22:56;2.03;;;0.90;;
11046;SDS011;5576;50.008;10.596;2023-04-01T05:25:22;2.60;;;1.00;;
11046;SDS011;5576;50.008;10.596;2023-04-01T05:27:48;3.35;;;0.90;;
11046;SDS011;5576;50.008;10.596;2023-04-01T05:30:14;2.22;;;1.00;;
11046;SDS011;5576;50.008;10.596;2023-04-01T05:32:59;1.73;;;0.80;;
11046;SDS011;5576;50.008;10.596;2023-04-01T05:35:26;1.83;;;0.90;;
11046;SDS011;5576;50.008;10.596;2023-04-01T05:37:51;2.13;;;0.90;;
11046;SDS011;5576;50.008;10.596;2023-04-01T05:40:18;1.42;;;0.73;;
11046;SDS011;5576;50.008;10.596;2023-04-01T05:42:44;2.42;;;0.88;;
11046;SDS011;5576;50.008;10.596;2023-04-01T05:45:10;2.40;;;0.95;;
11046;SDS011;5576;50.008;10.596;2023-04-01T05:47:56;2.03;;;0.90;;
11046;SDS011;5576;50.008;10.596;2023-04-01T05:50:21;2.38;;;0.88;;
11046;SDS011;5576;50.008;10.596;2023-04-01T05:52:48;1.65;;;0.90;;
11046;SDS011;5576;50.008;10.596;2023-04-01T05:55:14;1.73;;;0.73;;
11046;SDS011;5576;50.008;10.596;2023-04-01T05:57:40;2.28;;;0.82;;
11046;SDS011;5576;50.008;10.596;2023-04-01T06:00:06;1.97;;;0.90;;
11046;SDS011;5576;50.008;10.596;2023-04-01T06:02:38;1.83;;;0.85;;
11046;SDS011;5576;50.008;10.596;2023-04-01T06:05:11;1.83;;;0.85;;
11046;SDS011;5576;50.008;10.596;2023-04-01T06:07:40;2.20;;;1.00;;
11046;SDS011;5576;50.008;10.596;2023-04-01T06:10:12;2.03;;;0.75;;
11046;SDS011;5576;50.008;10.596;2023-04-01T06:21:18;1.52;;;0.80;;
11046;SDS011;5576;50.008;10.596;2023-04-01T06:26:24;2.05;;;0.90;;
11046;SDS011;5576;50.008;10.596;2023-04-01T06:29:08;2.47;;;0.80;;
11046;SDS011;5576;50.008;10.596;2023-04-01T06:34:56;2.42;;;0.90;;
11046;SDS011;5576;50.008;10.596;2023-04-01T06:43:19;1.90;;;0.70;;
11046;SDS011;5576;50.008;10.596;2023-04-01T06:55:30;1.40;;;0.63;;
11046;SDS011;5576;50.008;10.596;2023-04-01T06:58:28;3.92;;;1.20;;
11046;SDS011;5576;50.008;10.596;2023-04-01T07:01:01;2.00;;;0.90;;
11046;SDS011;5576;50.008;10.596;2023-04-01T07:03:32;2.47;;;0.80;;
11046;SDS011;5576;50.008;10.596;2023-04-01T07:06:09;3.17;;;1.00;;
11046;SDS011;5576;50.008;10.596;2023-04-01T07:08:49;1.85;;;0.90;;
11046;SDS011;5576;50.008;10.596;2023-04-01T07:11:23;1.77;;;1.35;;
11046;SDS011;5576;50.008;10.596;2023-04-01T07:19:18;2.28;;;1.30;;
11046;SDS011;5576;50.008;10.596;2023-04-01T07:25:05;4.50;;;2.30;;
11046;SDS011;5576;50.008;10.596;2023-04-01T07:27:43;2.70;;;1.70;;
11046;SDS011;5576;50.008;10.596;2023-04-01T07:30:14;2.83;;;1.20;;
11046;SDS011;5576;50.008;10.596;2023-04-01T07:32:46;5.20;;;2.90;;
11046;SDS011;5576;50.008;10.596;2023-04-01T07:38:08;3.22;;;2.10;;
11046;SDS011;5576;50.008;10.596;2023-04-01T07:43:35;2.50;;;1.53;;
11046;SDS011;5576;50.008;10.596;2023-04-01T07:54:28;3.15;;;1.55;;
11046;SDS011;5576;50.008;10.596;2023-04-01T07:57:04;2.53;;;1.00;;
11046;SDS011;5576;50.008;10.596;2023-04-01T08:03:07;2.63;;;1.27;;
11046;SDS011;5576;50.008;10.596;2023-04-01T08:05:41;1.27;;;0.90;;
11046;SDS011;5576;50.008;10.596;2023-04-01T08:08:27;2.92;;;1.20;;
11046;SDS011;5576;50.008;10.596;2023-04-01T08:11:27;1.88;;;1.10;;
11046;SDS011;5576;50.008;10.596;2023-04-01T08:17:20;2.58;;;1.10;;
11046;SDS011;5576;50.008;10.596;2023-04-01T08:19:59;2.55;;;1.50;;
11046;SDS011;5576;50.008;10.596;2023-04-01T08:22:38;2.13;;;1.00;;
11046;SDS011;5576;50.008;10.596;2023-04-01T08:25:20;2.22;;;0.98;;
11046;SDS011;5576;50.008;10.596;2023-04-01T08:27:53;2.72;;;1.42;;
11046;SDS011;5576;50.008;10.596;2023-04-01T08:30:25;2.97;;;1.27;;
11046;SDS011;5576;50.008;10.596;2023-04-01T08:33:00;2.47;;;1.10;;
11046;SDS011;5576;50.008;10.596;2023-04-01T08:35:57;2.05;;;0.93;;
11046;SDS011;5576;50.008;10.596;2023-04-01T08:38:29;2.03;;;0.95;;
11046;SDS011;5576;50.008;10.596;2023-04-01T08:50:16;3.28;;;2.20;;
11046;SDS011;5576;50.008;10.596;2023-04-01T08:55:47;2.17;;;1.20;;
11046;SDS011;5576;50.008;10.596;2023-04-01T09:09:57;1.85;;;0.93;;
11046;SDS011;5576;50.008;10.596;2023-04-01T09:18:28;2.53;;;2.10;;
11046;SDS011;5576;50.008;10.596;2023-04-01T09:32:34;1.80;;;1.30;;
11046;SDS011;5576;50.008;10.596;2023-04-01T09:40:52;1.60;;;1.10;;
11046;SDS011;5576;50.008;10.596;2023-04-01T09:43:39;1.92;;;1.00;;
11046;SDS011;5576;50.008;10.596;2023-04-01T09:48:50;2.88;;;2.20;;
11046;SDS011;5576;50.008;10.596;2023-04-01T09:54:13;1.27;;;1.08;;
11046;SDS011;5576;50.008;10.596;2023-04-01T10:05:40;1.45;;;1.00;;
11046;SDS011;5576;50.008;10.596;2023-04-01T10:17:57;1.10;;;1.00;;
11046;SDS011;5576;50.008;10.596;2023-04-01T10:52:18;0.70;;;0.60;;
11046;SDS011;5576;50.008;10.596;2023-04-01T10:58:54;1.83;;;0.75;;
11046;SDS011;5576;50.008;10.596;2023-04-01T11:02:23;0.88;;;0.70;;
11046;SDS011;5576;50.008;10.596;2023-04-01T11:11:42;0.80;;;0.67;;
11046;SDS011;5576;50.008;10.596;2023-04-01T11:25:19;1.13;;;1.00;;
11046;SDS011;5576;50.008;10.596;2023-04-01T11:40:14;0.70;;;0.70;;
11046;SDS011;5576;50.008;10.596;2023-04-01T11:46:19;1.92;;;1.42;;
11046;SDS011;5576;50.008;10.596;2023-04-01T12:08:13;0.60;;;0.60;;
11046;SDS011;5576;50.008;10.596;2023-04-01T12:13:51;1.05;;;0.90;;
11046;SDS011;5576;50.008;10.596;2023-04-01T12:19:37;0.90;;;0.70;;
11046;SDS011;5576;50.008;10.596;2023-04-01T12:25:00;1.88;;;1.52;;
11046;SDS011;5576;50.008;10.596;2023-04-01T12:46:41;1.00;;;1.00;;
11046;SDS011;5576;50.008;10.596;2023-04-01T12:58:19;1.63;;;0.90;;
11046;SDS011;5576;50.008;10.596;2023-04-01T13:06:41;1.98;;;1.80;;
11046;SDS011;5576;50.008;10.596;2023-04-01T13:17:39;0.70;;;0.70;;
11046;SDS011;5576;50.008;10.596;2023-04-01T13:28:06;1.33;;;1.23;;
11046;SDS011;5576;50.008;10.596;2023-04-01T13:30:57;2.50;;;1.90;;
11046;SDS011;5576;50.008;10.596;2023-04-01T13:44:41;1.25;;;1.08;;
11046;SDS011;5576;50.008;10.596;2023-04-01T14:10:31;1.05;;;1.00;;
11046;SDS011;5576;50.008;10.596;2023-04-01T14:15:56;0.98;;;0.80;;
11046;SDS011;5576;50.008;10.596;2023-04-01T14:18:42;0.90;;;0.90;;
11046;SDS011;5576;50.008;10.596;2023-04-01T14:21:14;0.82;;;0.80;;
11046;SDS011;5576;50.008;10.596;2023-04-01T14:29:32;0.90;;;0.90;;
11046;SDS011;5576;50.008;10.596;2023-04-01T14:32:06;2.83;;;2.08;;
11046;SDS011;5576;50.008;10.596;2023-04-01T14:43:28;1.70;;;1.60;;
11046;SDS011;5576;50.008;10.596;2023-04-01T14:49:15;1.00;;;1.00;;
11046;SDS011;5576;50.008;10.596;2023-04-01T14:51:44;0.98;;;0.90;;
11046;SDS011;5576;50.008;10.596;2023-04-01T14:56:48;0.93;;;0.82;;
11046;SDS011;5576;50.008;10.596;2023-04-01T15:05:02;0.80;;;0.80;;
11046;SDS011;5576;50.008;10.596;2023-04-01T15:08:00;2.50;;;1.00;;
11046;SDS011;5576;50.008;10.596;2023-04-01T15:19:01;0.70;;;0.70;;
11046;SDS011;5576;50.008;10.596;2023-04-01T15:21:33;0.98;;;0.95;;
11046;SDS011;5576;50.008;10.596;2023-04-01T15:29:46;0.80;;;0.80;;
11046;SDS011;5576;50.008;10.596;2023-04-01T15:38:10;0.90;;;0.90;;
11046;SDS011;5576;50.008;10.596;2023-04-01T15:43:35;1.58;;;1.33;;
11046;SDS011;5576;50.008;10.596;2023-04-01T15:46:25;1.00;;;1.00;;
11046;SDS011;5576;50.008;10.596;2023-04-01T15:49:10;1.00;;;1.00;;
11046;SDS011;5576;50.008;10.596;2023-04-01T16:05:30;2.75;;;2.55;;
11046;SDS011;5576;50.008;10.596;2023-04-01T16:11:23;1.63;;;1.52;;
11046;SDS011;5576;50.008;10.596;2023-04-01T16:14:12;1.20;;;1.10;;
11046;SDS011;5576;50.008;10.596;2023-04-01T16:20:02;1.55;;;1.45;;
11046;SDS011;5576;50.008;10.596;2023-04-01T16:22:38;1.37;;;1.23;;
11046;SDS011;5576;50.008;10.596;2023-04-01T16:28:24;1.40;;;1.30;;
11046;SDS011;5576;50.008;10.596;2023-04-01T16:30:59;2.67;;;1.85;;
11046;SDS011;5576;50.008;10.596;2023-04-01T16:33:37;2.30;;;2.10;;
11046;SDS011;5576;50.008;10.596;2023-04-01T16:41:30;2.20;;;2.00;;
11046;SDS011;5576;50.008;10.596;2023-04-01T16:49:28;2.30;;;1.77;;
11046;SDS011;5576;50.008;10.596;2023-04-01T16:52:17;2.57;;;2.20;;
11046;SDS011;5576;50.008;10.596;2023-04-01T16:55:16;2.03;;;1.75;;
11046;SDS011;5576;50.008;10.596;2023-04-01T16:57:46;1.30;;;1.20;;
11046;SDS011;5576;50.008;10.596;2023-04-01T17:02:52;1.50;;;1.40;;
11046;SDS011;5576;50.008;10.596;2023-04-01T17:08:24;1.63;;;1.30;;
11046;SDS011;5576;50.008;10.596;2023-04-01T17:11:02;2.28;;;1.40;;
11046;SDS011;5576;50.008;10.596;2023-04-01T17:13:34;1.00;;;0.90;;
11046;SDS011;5576;50.008;10.596;2023-04-01T17:21:38;2.10;;;1.90;;
11046;SDS011;5576;50.008;10.596;2023-04-01T17:24:21;3.73;;;2.60;;
11046;SDS011;5576;50.008;10.596;2023-04-01T17:30:26;2.13;;;1.88;;
11046;SDS011;5576;50.008;10.596;2023-04-01T17:33:09;4.65;;;3.40;;
11046;SDS011;5576;50.008;10.596;2023-04-01T17:38:39;2.67;;;1.98;;
11046;SDS011;5576;50.008;10.596;2023-04-01T17:50:10;1.98;;;1.50;;
11046;SDS011;5576;50.008;10.596;2023-04-01T17:58:28;1.17;;;1.00;;
11046;SDS011;5576;50.008;10.596;2023-04-01T18:00:58;1.33;;;1.23;;
11046;SDS011;5576;50.008;10.596;2023-04-01T18:06:00;1.38;;;1.10;;
11046;SDS011;5576;50.008;10.596;2023-04-01T18:11:31;1.60;;;1.20;;
11046;SDS011;5576;50.008;10.596;2023-04-01T18:16:41;1.40;;;1.10;;
11046;SDS011;5576;50.008;10.596;2023-04-01T18:19:27;1.30;;;1.20;;
11046;SDS011;5576;50.008;10.596;2023-04-01T18:22:08;1.95;;;1.45;;
11046;SDS011;5576;50.008;10.596;2023-04-01T18:24:42;1.30;;;1.20;;
11046;SDS011;5576;50.008;10.596;2023-04-01T18:27:17;1.55;;;1.30;;
11046;SDS011;5576;50.008;10.596;2023-04-01T18:29:49;1.10;;;1.00;;
11046;SDS011;5576;50.008;10.596;2023-04-01T18:32:23;2.40;;;2.15;;
11046;SDS011;5576;50.008;10.596;2023-04-01T18:37:47;2.00;;;1.50;;
11046;SDS011;5576;50.008;10.596;2023-04-01T18:40:29;2.28;;;2.00;;
11046;SDS011;5576;50.008;10.596;2023-04-01T18:43:02;2.85;;;1.80;;
11046;SDS011;5576;50.008;10.596;2023-04-01T18:45:54;1.48;;;1.38;;
11046;SDS011;5576;50.008;10.596;2023-04-01T18:48:50;1.70;;;1.40;;
11046;SDS011;5576;50.008;10.596;2023-04-01T18:51:21;1.20;;;1.10;;
11046;SDS011;5576;50.008;10.596;2023-04-01T18:57:13;1.50;;;1.40;;
11046;SDS011;5576;50.008;10.596;2023-04-01T18:59:42;1.38;;;1.27;;
11046;SDS011;5576;50.008;10.596;2023-04-01T19:02:20;1.20;;;1.10;;
11046;SDS011;5576;50.008;10.596;2023-04-01T19:05:02;1.75;;;1.20;;
11046;SDS011;5576;50.008;10.596;2023-04-01T19:10:15;1.50;;;1.10;;
11046;SDS011;5576;50.008;10.596;2023-04-01T19:13:02;1.48;;;1.00;;
11046;SDS011;5576;50.008;10.596;2023-04-01T19:21:47;1.30;;;1.20;;
11046;SDS011;5576;50.008;10.596;2023-04-01T19:32:21;1.27;;;1.17;;
11046;SDS011;5576;50.008;10.596;2023-04-01T19:38:02;1.58;;;1.48;;
11046;SDS011;5576;50.008;10.596;2023-04-01T19:46:11;1.50;;;1.27;;
11046;SDS011;5576;50.008;10.596;2023-04-01T19:59:26;1.50;;;1.27;;
11046;SDS011;5576;50.008;10.596;2023-04-01T20:02:24;1.30;;;1.20;;
11046;SDS011;5576;50.008;10.596;2023-04-01T20:04:58;1.77;;;1.20;;
11046;SDS011;5576;50.008;10.596;2023-04-01T20:07:40;1.17;;;1.10;;
11046;SDS011;5576;50.008;10.596;2023-04-01T20:10:13;1.90;;;1.10;;
11046;SDS011;5576;50.008;10.596;2023-04-01T20:12:52;2.17;;;1.20;;
11046;SDS011;5576;50.008;10.596;2023-04-01T20:15:59;1.52;;;1.30;;
11046;SDS011;5576;50.008;10.596;2023-04-01T20:18:34;1.30;;;1.20;;
11046;SDS011;5576;50.008;10.596;2023-04-01T20:21:08;1.02;;;1.00;;
11046;SDS011;5576;50.008;10.596;2023-04-01T20:23:43;1.33;;;0.90;;
11046;SDS011;5576;50.008;10.596;2023-04-01T20:26:14;1.30;;;1.20;;
11046;SDS011;5576;50.008;10.596;2023-04-01T20:34:32;1.20;;;1.10;;
11046;SDS011;5576;50.008;10.596;2023-04-01T20:46:11;1.73;;;1.50;;
11046;SDS011;5576;50.008;10.596;2023-04-01T20:48:48;1.50;;;1.40;;
11046;SDS011;5576;50.008;10.596;2023-04-01T20:51:29;1.75;;;1.20;;
11046;SDS011;5576;50.008;10.596;2023-04-01T20:54:02;1.63;;;1.33;;
11046;SDS011;5576;50.008;10.596;2023-04-01T20:56:41;2.15;;;1.40;;
11046;SDS011;5576;50.008;10.596;2023-04-01T21:07:58;9.10;;;5.72;;
11046;SDS011;5576;50.008;10.596;2023-04-01T21:10:51;9.95;;;5.75;;
11046;SDS011;5576;50.008;10.596;2023-04-01T21:22:06;4.32;;;3.35;;
11046;SDS011;5576;50.008;10.596;2023-04-01T21:24:49;2.10;;;1.90;;
11046;SDS011;5576;50.008;10.596;2023-04-01T21:43:58;3.33;;;2.63;;
11046;SDS011;5576;50.008;10.596;2023-04-01T21:46:26;1.85;;;1.75;;
11046;SDS011;5576;50.008;10.596;2023-04-01T21:58:20;2.42;;;1.60;;
11046;SDS011;5576;50.008;10.596;2023-04-01T22:00:48;2.10;;;1.40;;
11046;SDS011;5576;50.008;10.596;2023-04-01T22:08:56;1.60;;;1.50;;
11046;SDS011;5576;50.008;10.596;2023-04-01T22:14:01;1.80;;;1.70;;
11046;SDS011;5576;50.008;10.596;2023-04-01T22:16:43;1.63;;;1.52;;
11046;SDS011;5576;50.008;10.596;2023-04-01T22:19:25;1.75;;;1.60;;
11046;SDS011;5576;50.008;10.596;2023-04-01T22:27:38;3.58;;;2.75;;
11046;SDS011;5576;50.008;10.596;2023-04-01T22:32:47;3.63;;;3.00;;
11046;SDS011;5576;50.008;10.596;2023-04-01T22:35:19;5.13;;;4.63;;
11046;SDS011;5576;50.008;10.596;2023-04-01T22:37:53;7.85;;;7.05;;
11046;SDS011;5576;50.008;10.596;2023-04-01T22:40:24;6.80;;;5.90;;
11046;SDS011;5576;50.008;10.596;2023-04-01T22:43:04;2.40;;;2.03;;
11046;SDS011;5576;50.008;10.596;2023-04-01T22:53:44;2.10;;;1.90;;
11046;SDS011;5576;50.008;10.596;2023-04-01T22:56:21;1.80;;;1.70;;
11046;SDS011;5576;50.008;10.596;2023-04-01T22:58:52;1.70;;;1.60;;
11046;SDS011;5576;50.008;10.596;2023-04-01T23:01:27;2.20;;;2.00;;
11046;SDS011;5576;50.008;10.596;2023-04-01T23:03:57;3.83;;;3.47;;
11046;SDS011;5576;50.008;10.596;2023-04-01T23:06:26;3.00;;;2.70;;
11046;SDS011;5576;50.008;10.596;2023-04-01T23:11:42;2.47;;;2.27;;
11046;SDS011;5576;50.008;10.596;2023-04-01T23:22:41;3.70;;;3.20;;
11046;SDS011;5576;50.008;10.596;2023-04-01T23:33:11;4.93;;;3.47;;
11046;SDS011;5576;50.008;10.596;2023-04-01T23:35:47;3.78;;;2.80;;
11046;SDS011;5576;50.008;10.596;2023-04-01T23:38:15;3.15;;;2.50;;
11046;SDS011;5576;50.008;10.596;2023-04-01T23:40:42;4.45;;;3.10;;
11046;SDS011;5576;50.008;10.596;2023-04-01T23:43:12;5.50;;;3.60;;
11046;SDS011;5576;50.008;10.596;2023-04-01T23:45:41;4.25;;;3.15;;
11046;SDS011;5576;50.008;10.596;2023-04-01T23:48:10;4.18;;;2.70;;
11046;SDS011;5576;50.008;10.596;2023-04-01T23:50:40;3.33;;;2.30;;
11046;SDS011;5576;50.008;10.596;2023-04-01T23:55:58;3.40;;;2.90;;
11046;SDS011;5576;50.008;10.596;2023-04-01T23:58:37;3.17;;;2.75;;
